Time;durP1;ratioP1;P1;durP2;ratioP2;P2;SDS_P1;SDS_P2;PMS_P1;PMS_P2;Temp;Humidity;BMP_temperature;BMP_pressure;BME280_temperature;BME280_humidity;BME280_pressure;Samples;Min_cycle;Max_cycle;Signal;HPM_P1;HPM_P2
2021/07/27 00:00:32;;;;;;;8.10;3.30;;;21.10;99.90;;;;;;5046923;28;20090;-46
2021/07/27 00:02:59;;;;;;;4.43;3.40;;;21.10;99.90;;;;;;5066443;28;20175;-47
2021/07/27 00:05:25;;;;;;;8.02;3.65;;;21.10;99.90;;;;;;5059820;28;20112;-49
2021/07/27 00:07:50;;;;;;;7.75;4.28;;;20.90;99.90;;;;;;5058598;28;20116;-47
2021/07/27 00:10:16;;;;;;;8.38;3.72;;;20.80;99.90;;;;;;5064447;28;20072;-46
2021/07/27 00:12:43;;;;;;;6.00;3.97;;;20.70;99.90;;;;;;5057435;28;20036;-46
2021/07/27 00:15:09;;;;;;;7.20;4.20;;;20.70;99.90;;;;;;5064694;28;20025;-46
2021/07/27 00:17:34;;;;;;;4.57;3.97;;;20.60;99.90;;;;;;5047706;28;20070;-46
2021/07/27 00:20:00;;;;;;;6.07;4.03;;;20.50;99.90;;;;;;5062533;28;20055;-46
2021/07/27 00:22:26;;;;;;;4.72;3.90;;;20.40;99.90;;;;;;5060868;28;20024;-46
2021/07/27 00:24:53;;;;;;;5.00;3.88;;;20.30;99.90;;;;;;5059153;28;20029;-46
2021/07/27 00:27:19;;;;;;;6.82;4.05;;;20.30;99.90;;;;;;5060729;28;20025;-46
2021/07/27 00:29:45;;;;;;;7.35;4.10;;;20.20;99.90;;;;;;5061491;28;20067;-46
2021/07/27 00:32:10;;;;;;;5.57;4.30;;;20.20;99.90;;;;;;5057327;28;20052;-45
2021/07/27 00:34:36;;;;;;;8.10;4.30;;;20.10;99.90;;;;;;5049164;28;20059;-45
2021/07/27 00:37:02;;;;;;;5.75;3.72;;;20.10;99.90;;;;;;5062188;28;20108;-47
2021/07/27 00:39:28;;;;;;;5.43;4.00;;;20.00;99.90;;;;;;5060168;28;20024;-46
2021/07/27 00:41:53;;;;;;;4.47;3.60;;;20.00;99.90;;;;;;5059828;28;20017;-46
2021/07/27 00:44:19;;;;;;;5.65;4.22;;;20.00;99.90;;;;;;5060226;28;20494;-45
2021/07/27 00:46:45;;;;;;;5.72;4.25;;;20.00;99.90;;;;;;5054136;28;20067;-47
2021/07/27 00:49:10;;;;;;;4.50;3.45;;;20.00;99.90;;;;;;5063164;28;20041;-47
2021/07/27 00:51:36;;;;;;;4.65;3.63;;;20.00;99.90;;;;;;5060686;28;20083;-44
2021/07/27 00:54:01;;;;;;;6.68;3.70;;;19.90;99.90;;;;;;5058417;28;20029;-45
2021/07/27 00:56:27;;;;;;;5.68;4.00;;;19.90;99.90;;;;;;5055832;28;20028;-46
2021/07/27 00:58:53;;;;;;;8.40;4.63;;;19.90;99.90;;;;;;5059623;28;20021;-46
2021/07/27 01:01:19;;;;;;;5.22;3.50;;;20.00;99.90;;;;;;5062519;28;20131;-49
2021/07/27 01:03:45;;;;;;;6.35;3.92;;;20.00;99.90;;;;;;5056825;28;20081;-45
2021/07/27 01:06:10;;;;;;;6.95;3.78;;;20.00;99.90;;;;;;5062614;28;20220;-47
2021/07/27 01:08:37;;;;;;;5.45;3.78;;;20.00;99.90;;;;;;5052028;28;20025;-46
2021/07/27 01:11:03;;;;;;;5.78;3.78;;;19.90;99.90;;;;;;5062147;28;20021;-46
2021/07/27 01:13:29;;;;;;;6.10;3.97;;;20.00;99.90;;;;;;5058880;28;20092;-46
2021/07/27 01:15:59;;;;;;;6.53;3.65;;;19.90;99.90;;;;;;5058005;28;20096;-46
2021/07/27 01:18:28;;;;;;;8.63;4.50;;;20.00;99.90;;;;;;5052108;28;20141;-47
2021/07/27 01:40:00;;;;;;;4.30;3.63;;;20.20;99.90;;;;;;5058678;28;20453;-47
2021/07/27 01:42:26;;;;;;;6.78;4.07;;;20.20;99.90;;;;;;5059819;28;20041;-46
2021/07/27 01:44:51;;;;;;;7.40;3.85;;;20.30;99.90;;;;;;5058441;28;20025;-47
2021/07/27 01:47:17;;;;;;;4.43;3.63;;;20.20;99.90;;;;;;5049228;28;20025;-50
2021/07/27 01:49:44;;;;;;;5.93;3.67;;;20.20;99.90;;;;;;5057922;28;20060;-47
2021/07/27 01:52:13;;;;;;;4.85;3.42;;;20.30;99.90;;;;;;5056138;28;20501;-50
2021/07/27 01:54:54;;;;;;;5.53;3.70;;;20.20;99.90;;;;;;5058585;28;20028;-50
2021/07/27 01:57:21;;;;;;;5.88;3.70;;;20.20;99.90;;;;;;5040792;28;20409;-48
2021/07/27 02:00:05;;;;;;;5.97;3.60;;;20.20;99.90;;;;;;5063583;28;20032;-48
2021/07/27 02:02:31;;;;;;;4.85;3.53;;;20.20;99.90;;;;;;5045537;28;20378;-47
2021/07/27 02:04:56;;;;;;;5.00;4.05;;;20.20;99.90;;;;;;5060172;28;20094;-48
2021/07/27 02:07:22;;;;;;;6.13;3.88;;;20.20;99.90;;;;;;5056487;28;20032;-49
2021/07/27 02:09:50;;;;;;;6.45;3.70;;;20.20;99.90;;;;;;5061615;28;20099;-49
2021/07/27 02:12:22;;;;;;;5.03;3.88;;;20.20;99.90;;;;;;5059951;28;20025;-49
2021/07/27 02:15:07;;;;;;;4.82;3.67;;;20.20;99.90;;;;;;5046111;28;20428;-47
2021/07/27 02:17:33;;;;;;;8.52;3.53;;;20.20;99.90;;;;;;5044234;28;20052;-47
2021/07/27 02:20:03;;;;;;;7.10;3.97;;;20.10;99.90;;;;;;5054350;28;20479;-46
2021/07/27 02:22:31;;;;;;;6.03;3.45;;;20.10;99.90;;;;;;5059137;28;20178;-47
2021/07/27 02:24:57;;;;;;;3.92;3.53;;;20.00;99.90;;;;;;5057352;28;20093;-50
2021/07/27 02:27:26;;;;;;;5.65;3.60;;;20.00;99.90;;;;;;5058844;28;20447;-47
2021/07/27 02:29:53;;;;;;;4.55;3.22;;;20.00;99.90;;;;;;5059755;28;20555;-47
2021/07/27 02:32:19;;;;;;;6.10;3.55;;;20.00;99.90;;;;;;5062292;28;20032;-47
2021/07/27 02:34:45;;;;;;;5.30;3.50;;;20.00;99.90;;;;;;5057202;28;20489;-46
2021/07/27 02:37:10;;;;;;;7.00;3.78;;;20.00;99.90;;;;;;5054596;28;20021;-46
2021/07/27 02:39:37;;;;;;;5.13;3.80;;;20.00;99.90;;;;;;5060459;28;20478;-48
2021/07/27 02:42:02;;;;;;;4.93;3.67;;;19.90;99.90;;;;;;5057811;28;20053;-47
2021/07/27 02:44:28;;;;;;;6.32;3.90;;;19.90;99.90;;;;;;5060657;28;20419;-48
2021/07/27 02:46:53;;;;;;;8.45;3.97;;;19.90;99.90;;;;;;5058156;28;20025;-46
2021/07/27 02:49:19;;;;;;;6.10;3.45;;;19.90;99.90;;;;;;5058665;28;20486;-48
2021/07/27 02:51:49;;;;;;;4.40;3.53;;;19.80;99.90;;;;;;5057823;28;20028;-47
2021/07/27 02:54:14;;;;;;;11.07;3.83;;;19.80;99.90;;;;;;5055694;28;20025;-47
2021/07/27 02:56:40;;;;;;;4.82;3.22;;;19.80;99.90;;;;;;5045276;28;20320;-46
2021/07/27 02:59:07;;;;;;;5.10;3.67;;;19.70;99.90;;;;;;5060893;28;20017;-47
2021/07/27 03:01:32;;;;;;;5.80;4.15;;;19.70;99.90;;;;;;5060999;28;20074;-45
2021/07/27 03:03:58;;;;;;;4.35;3.85;;;19.70;99.90;;;;;;5055227;28;20425;-46
2021/07/27 03:06:23;;;;;;;5.05;4.18;;;19.60;99.90;;;;;;5055212;28;20025;-46
2021/07/27 03:11:20;;;;;;;8.75;3.83;;;19.60;99.90;;;;;;5047350;28;20032;-45
2021/07/27 03:13:47;;;;;;;7.68;4.10;;;19.50;99.90;;;;;;5057138;28;20028;-47
2021/07/27 03:16:18;;;;;;;8.63;4.38;;;19.60;99.90;;;;;;5051996;28;20024;-48
2021/07/27 03:18:44;;;;;;;;;;;19.50;99.90;;;;;;5054703;28;20041;-47
2021/07/27 03:21:13;;;;;;;4.90;3.83;;;19.40;99.90;;;;;;5053826;28;19973;-46
2021/07/27 03:23:38;;;;;;;5.28;4.15;;;19.50;99.90;;;;;;5059498;28;20020;-47
2021/07/27 03:26:04;;;;;;;5.47;3.72;;;19.40;99.90;;;;;;5061855;28;20063;-47
2021/07/27 03:28:29;;;;;;;5.30;4.28;;;19.40;99.90;;;;;;5053909;28;20516;-47
2021/07/27 03:30:55;;;;;;;8.50;4.00;;;19.40;99.90;;;;;;5064095;28;20035;-48
2021/07/27 03:33:20;;;;;;;5.07;4.15;;;19.40;99.90;;;;;;5060280;28;20174;-47
2021/07/27 03:35:46;;;;;;;12.40;4.47;;;19.40;99.90;;;;;;5061476;28;20473;-48
2021/07/27 03:38:11;;;;;;;5.20;4.05;;;19.30;99.90;;;;;;5062982;28;20041;-47
2021/07/27 03:40:38;;;;;;;6.07;4.47;;;19.30;99.90;;;;;;5047554;28;20020;-46
2021/07/27 03:43:03;;;;;;;5.40;4.10;;;19.30;99.90;;;;;;5066507;28;20538;-46
2021/07/27 03:45:29;;;;;;;7.20;4.65;;;19.20;99.90;;;;;;5063345;28;20100;-49
2021/07/27 03:47:54;;;;;;;5.18;4.25;;;19.20;99.90;;;;;;5061045;28;20036;-48
2021/07/27 03:50:20;;;;;;;6.40;4.28;;;19.10;99.90;;;;;;5056615;28;20021;-46
2021/07/27 03:52:45;;;;;;;4.95;4.30;;;19.10;99.90;;;;;;5062326;28;20389;-46
2021/07/27 03:55:11;;;;;;;6.70;4.30;;;19.10;99.90;;;;;;5057742;28;20147;-46
2021/07/27 03:57:37;;;;;;;6.95;4.90;;;19.10;99.90;;;;;;5063354;28;20509;-45
2021/07/27 04:00:04;;;;;;;7.00;4.40;;;19.10;99.90;;;;;;5059424;28;20043;-46
2021/07/27 04:02:29;;;;;;;5.05;3.97;;;19.10;99.90;;;;;;5032834;28;20026;-46
2021/07/27 04:04:55;;;;;;;8.85;4.32;;;19.10;99.90;;;;;;5028514;28;20099;-45
2021/07/27 04:07:20;;;;;;;8.52;5.20;;;19.10;99.90;;;;;;5031386;28;20031;-48
2021/07/27 04:09:46;;;;;;;4.45;4.05;;;19.10;99.90;;;;;;5050278;28;20576;-45
2021/07/27 04:12:11;;;;;;;5.70;4.43;;;19.10;99.90;;;;;;5042621;28;20421;-45
2021/07/27 04:14:37;;;;;;;9.10;4.65;;;19.20;99.90;;;;;;5053027;28;20078;-46
2021/07/27 04:17:03;;;;;;;8.43;4.20;;;19.20;99.90;;;;;;5045421;28;20025;-46
2021/07/27 04:19:28;;;;;;;6.60;4.70;;;19.20;99.90;;;;;;5063756;28;20494;-46
2021/07/27 04:21:54;;;;;;;6.35;4.03;;;19.20;99.90;;;;;;5058992;28;20106;-45
2021/07/27 04:24:19;;;;;;;5.50;4.20;;;19.20;99.90;;;;;;5065158;28;20390;-46
2021/07/27 04:26:48;;;;;;;6.30;4.63;;;19.30;99.90;;;;;;5058408;28;20025;-45
2021/07/27 04:29:16;;;;;;;5.35;3.83;;;19.40;99.90;;;;;;5065974;28;20064;-46
2021/07/27 04:31:41;;;;;;;6.13;4.57;;;19.40;99.90;;;;;;5038818;28;20129;-47
2021/07/27 04:34:06;;;;;;;6.03;4.53;;;19.50;99.90;;;;;;5038641;28;20092;-47
2021/07/27 04:36:32;;;;;;;6.72;4.30;;;19.50;99.90;;;;;;5040268;28;20102;-48
2021/07/27 04:38:57;;;;;;;7.00;4.68;;;19.50;99.90;;;;;;5035117;28;20121;-49
2021/07/27 04:41:23;;;;;;;7.43;4.30;;;19.60;99.90;;;;;;5038205;28;20026;-47
2021/07/27 04:43:48;;;;;;;4.45;3.65;;;19.60;99.90;;;;;;5036403;28;20052;-47
2021/07/27 04:46:14;;;;;;;6.13;4.15;;;19.70;99.90;;;;;;5040780;28;20056;-47
2021/07/27 04:48:39;;;;;;;6.95;4.28;;;19.70;99.90;;;;;;5038135;28;20029;-46
2021/07/27 04:51:05;;;;;;;6.55;4.93;;;19.70;99.90;;;;;;5039359;28;20477;-47
2021/07/27 04:53:34;;;;;;;4.22;3.70;;;19.70;99.90;;;;;;5057210;28;20038;-48
2021/07/27 04:56:00;;;;;;;6.05;4.78;;;19.70;99.90;;;;;;5039351;28;20096;-46
2021/07/27 04:58:26;;;;;;;5.50;4.70;;;19.70;99.90;;;;;;5051712;28;20044;-46
2021/07/27 05:00:51;;;;;;;7.28;4.60;;;19.60;99.90;;;;;;5042203;28;20491;-47
2021/07/27 05:03:17;;;;;;;6.10;4.72;;;19.60;99.90;;;;;;5052579;28;20025;-48
2021/07/27 05:05:42;;;;;;;6.43;4.40;;;19.60;99.90;;;;;;5038923;28;20033;-46
2021/07/27 05:08:08;;;;;;;5.07;4.55;;;19.70;99.90;;;;;;5036162;28;20083;-46
2021/07/27 05:10:33;;;;;;;6.50;4.47;;;19.70;99.90;;;;;;5033770;28;20481;-47
2021/07/27 05:12:59;;;;;;;7.05;4.45;;;19.70;99.90;;;;;;5036300;28;20026;-47
2021/07/27 05:15:25;;;;;;;6.68;4.82;;;19.70;99.90;;;;;;5033460;28;20079;-46
2021/07/27 05:17:58;;;;;;;7.07;4.80;;;19.70;99.90;;;;;;5032705;28;20322;-48
2021/07/27 05:20:23;;;;;;;5.63;4.30;;;19.60;99.90;;;;;;5034098;28;20138;-49
2021/07/27 05:22:49;;;;;;;6.85;3.95;;;19.70;99.90;;;;;;5030568;28;20022;-50
2021/07/27 05:25:16;;;;;;;8.57;4.85;;;19.70;99.90;;;;;;5029176;28;20099;-50
2021/07/27 05:27:41;;;;;;;6.30;4.47;;;19.80;99.90;;;;;;5037769;28;20037;-50
2021/07/27 05:30:07;;;;;;;7.15;4.80;;;19.90;99.90;;;;;;5041630;28;20024;-50
2021/07/27 05:32:32;;;;;;;8.25;4.72;;;19.90;99.90;;;;;;5040843;28;20020;-48
2021/07/27 05:34:58;;;;;;;5.75;4.65;;;19.90;99.90;;;;;;5032640;28;20030;-47
2021/07/27 05:37:23;;;;;;;7.70;4.70;;;19.90;99.90;;;;;;5032157;28;20025;-49
2021/07/27 05:39:49;;;;;;;6.97;4.60;;;20.00;99.90;;;;;;5035854;28;20029;-49
2021/07/27 05:42:15;;;;;;;8.15;5.10;;;20.10;99.90;;;;;;5028577;28;20022;-49
2021/07/27 05:44:41;;;;;;;10.95;4.55;;;20.10;99.90;;;;;;5035763;28;20092;-47
2021/07/27 05:47:07;;;;;;;6.75;5.35;;;20.10;99.90;;;;;;5051372;28;20033;-46
2021/07/27 05:49:34;;;;;;;7.55;5.00;;;20.10;99.90;;;;;;5042352;28;20038;-46
2021/07/27 05:52:00;;;;;;;5.20;4.38;;;20.20;99.90;;;;;;5042826;28;20055;-47
2021/07/27 05:54:25;;;;;;;7.70;5.22;;;20.20;99.90;;;;;;5054783;28;20107;-47
2021/07/27 05:56:52;;;;;;;6.78;4.97;;;20.20;99.90;;;;;;5046380;28;20459;-47
2021/07/27 05:59:18;;;;;;;8.93;5.55;;;20.30;99.90;;;;;;5041301;28;20028;-47
2021/07/27 06:01:45;;;;;;;7.35;5.32;;;20.40;99.90;;;;;;5047024;28;20145;-48
2021/07/27 06:04:10;;;;;;;10.95;5.00;;;20.40;99.90;;;;;;5056959;28;20040;-49
2021/07/27 06:06:37;;;;;;;7.55;5.05;;;20.50;99.90;;;;;;5054949;28;20024;-49
2021/07/27 06:09:06;;;;;;;5.97;4.75;;;20.60;99.90;;;;;;5045381;28;20065;-49
2021/07/27 06:11:33;;;;;;;8.50;4.63;;;20.70;99.90;;;;;;5053133;28;20394;-48
2021/07/27 06:14:00;;;;;;;9.15;4.82;;;20.80;99.90;;;;;;5047786;28;20120;-48
2021/07/27 06:16:26;;;;;;;5.65;4.68;;;20.80;99.90;;;;;;5038128;28;20241;-46
2021/07/27 06:18:51;;;;;;;5.38;4.38;;;20.90;99.90;;;;;;5045608;28;20368;-47
2021/07/27 06:21:17;;;;;;;8.00;5.10;;;20.90;99.90;;;;;;5057468;28;20077;-46
2021/07/27 06:23:42;;;;;;;5.93;4.38;;;20.90;99.90;;;;;;5061888;28;20032;-49
2021/07/27 06:26:08;;;;;;;8.77;4.57;;;20.90;99.90;;;;;;5057163;28;20043;-49
2021/07/27 06:28:34;;;;;;;9.60;5.00;;;20.80;99.90;;;;;;5056594;28;20024;-47
2021/07/27 06:31:03;;;;;;;5.88;4.70;;;20.70;99.90;;;;;;5047396;28;20038;-47
2021/07/27 06:33:29;;;;;;;6.70;4.38;;;20.70;99.90;;;;;;5035977;28;20036;-48
2021/07/27 06:35:58;;;;;;;5.35;4.07;;;20.70;99.90;;;;;;5037222;28;20094;-47
2021/07/27 06:38:24;;;;;;;7.32;4.63;;;20.80;99.90;;;;;;5040117;28;20042;-50
2021/07/27 06:40:50;;;;;;;6.47;5.00;;;20.80;99.90;;;;;;5038097;28;20092;-48
2021/07/27 06:43:16;;;;;;;5.18;4.68;;;20.80;99.90;;;;;;5037078;28;20044;-48
2021/07/27 06:45:42;;;;;;;6.50;5.70;;;20.80;99.90;;;;;;5043148;28;20248;-47
2021/07/27 06:48:08;;;;;;;6.82;4.93;;;20.80;99.90;;;;;;5054419;28;20025;-47
2021/07/27 06:50:33;;;;;;;6.78;5.28;;;20.90;99.90;;;;;;5041410;28;20043;-48
2021/07/27 06:53:01;;;;;;;7.20;4.75;;;21.00;99.90;;;;;;5045959;28;20085;-49
2021/07/27 06:55:26;;;;;;;7.75;6.15;;;21.00;99.90;;;;;;5042964;28;20013;-46
2021/07/27 06:57:52;;;;;;;9.02;6.35;;;21.10;99.90;;;;;;5054273;28;20013;-47
2021/07/27 07:00:18;;;;;;;9.65;6.55;;;21.20;99.90;;;;;;5053098;28;20111;-46
2021/07/27 07:02:43;;;;;;;7.38;5.07;;;21.10;99.90;;;;;;5043506;28;20029;-47
2021/07/27 07:05:09;;;;;;;8.65;6.25;;;21.20;99.90;;;;;;5058393;28;20169;-47
2021/07/27 07:07:36;;;;;;;10.00;6.88;;;21.30;99.90;;;;;;5049501;28;20038;-47
2021/07/27 07:10:01;;;;;;;7.95;5.88;;;21.30;99.90;;;;;;5043702;28;20032;-47
2021/07/27 07:12:28;;;;;;;6.97;5.32;;;21.30;99.90;;;;;;5055343;28;20487;-50
2021/07/27 07:14:55;;;;;;;7.40;5.80;;;21.40;99.90;;;;;;5051453;28;20363;-47
2021/07/27 07:17:21;;;;;;;6.03;4.90;;;21.50;99.90;;;;;;5050029;28;20078;-48
2021/07/27 07:19:46;;;;;;;8.80;5.93;;;21.60;99.90;;;;;;5058724;28;20033;-47
2021/07/27 07:22:12;;;;;;;6.22;5.43;;;21.70;99.90;;;;;;5061423;28;20047;-49
2021/07/27 07:24:37;;;;;;;7.93;5.53;;;21.70;99.90;;;;;;5051644;28;20437;-49
2021/07/27 07:27:03;;;;;;;8.70;4.97;;;21.90;99.90;;;;;;5040981;28;20044;-48
2021/07/27 07:29:28;;;;;;;11.55;5.97;;;22.10;99.90;;;;;;5036628;28;20029;-47
2021/07/27 07:31:54;;;;;;;8.43;4.45;;;22.30;99.90;;;;;;5037768;28;20028;-48
2021/07/27 07:34:19;;;;;;;6.32;4.85;;;22.50;99.90;;;;;;5035767;28;20031;-47
2021/07/27 07:36:45;;;;;;;6.18;4.72;;;22.70;99.90;;;;;;5044043;28;20014;-48
2021/07/27 07:39:10;;;;;;;7.85;4.68;;;22.90;99.90;;;;;;5035021;28;20027;-50
2021/07/27 07:41:36;;;;;;;4.95;4.18;;;23.10;99.90;;;;;;5033442;28;20021;-46
2021/07/27 07:44:01;;;;;;;9.80;4.75;;;23.10;99.90;;;;;;5040058;28;20044;-49
2021/07/27 07:46:27;;;;;;;7.22;4.80;;;23.00;99.90;;;;;;5040927;28;20057;-49
2021/07/27 07:48:52;;;;;;;6.47;4.15;;;23.10;99.90;;;;;;5041801;28;20038;-48
2021/07/27 07:51:18;;;;;;;5.82;4.28;;;23.10;99.90;;;;;;5036318;28;20025;-48
2021/07/27 07:53:43;;;;;;;5.47;4.43;;;23.10;99.90;;;;;;5035498;28;20048;-49
2021/07/27 07:56:09;;;;;;;5.85;4.15;;;23.40;99.90;;;;;;5040357;28;20022;-49
2021/07/27 07:58:35;;;;;;;6.72;5.10;;;23.60;99.90;;;;;;5039036;28;20017;-49
2021/07/27 08:01:00;;;;;;;8.00;3.78;;;23.90;99.90;;;;;;5053659;28;20033;-50
2021/07/27 08:03:26;;;;;;;6.18;4.53;;;23.90;99.40;;;;;;5053627;28;20036;-49
2021/07/27 08:05:51;;;;;;;7.05;5.15;;;23.90;98.70;;;;;;5041139;28;20028;-49
2021/07/27 08:08:19;;;;;;;5.35;4.55;;;24.00;98.90;;;;;;5040680;28;20588;-50
2021/07/27 08:10:45;;;;;;;8.38;4.85;;;24.20;98.20;;;;;;5050948;28;20099;-47
2021/07/27 08:13:10;;;;;;;6.93;4.82;;;24.20;97.90;;;;;;5054070;28;20471;-48
2021/07/27 08:15:36;;;;;;;5.55;4.47;;;23.80;98.50;;;;;;5062164;28;20025;-48
2021/07/27 08:18:02;;;;;;;5.65;5.05;;;23.40;99.50;;;;;;5043789;28;20017;-47
2021/07/27 08:20:29;;;;;;;4.90;4.35;;;23.20;99.60;;;;;;5063945;28;20040;-49
2021/07/27 08:22:57;;;;;;;5.63;4.32;;;23.00;99.90;;;;;;5057263;28;20043;-50
2021/07/27 08:25:23;;;;;;;6.90;5.22;;;23.00;99.90;;;;;;5062469;28;20021;-47
2021/07/27 08:27:48;;;;;;;6.07;5.20;;;22.90;99.90;;;;;;5061281;28;20036;-48
2021/07/27 08:30:15;;;;;;;6.50;5.63;;;23.40;99.10;;;;;;5041711;28;20393;-49
2021/07/27 08:32:52;;;;;;;8.95;6.47;;;23.40;98.40;;;;;;5066497;28;20020;-48
2021/07/27 08:35:21;;;;;;;8.05;5.78;;;23.70;98.70;;;;;;5055792;28;20079;-50
2021/07/27 08:37:47;;;;;;;5.88;5.22;;;23.80;98.30;;;;;;5052770;28;20021;-48
2021/07/27 08:40:14;;;;;;;5.55;4.63;;;25.00;95.90;;;;;;5060920;28;20024;-48
2021/07/27 08:42:41;;;;;;;5.15;4.65;;;26.40;94.60;;;;;;5050522;28;20675;-49
2021/07/27 08:45:08;;;;;;;10.15;6.28;;;28.30;91.50;;;;;;5050324;28;20039;-46
2021/07/27 08:47:34;;;;;;;5.18;4.68;;;29.30;85.60;;;;;;5063629;28;20048;-49
2021/07/27 08:50:00;;;;;;;4.78;4.38;;;30.10;79.70;;;;;;5057157;28;20033;-48
2021/07/27 08:52:27;;;;;;;5.05;4.60;;;30.40;74.00;;;;;;5052437;28;20024;-48
2021/07/27 08:54:53;;;;;;;5.95;4.90;;;28.90;75.10;;;;;;5062807;28;20032;-48
2021/07/27 08:57:19;;;;;;;8.68;5.05;;;28.10;78.80;;;;;;5063681;28;20518;-50
2021/07/27 08:59:45;;;;;;;5.30;4.70;;;27.60;80.20;;;;;;5056684;28;20057;-50
2021/07/27 09:02:10;;;;;;;5.28;4.78;;;26.80;81.70;;;;;;5057922;28;20060;-49
2021/07/27 09:04:36;;;;;;;6.65;4.50;;;26.30;83.80;;;;;;5056676;28;20028;-49
2021/07/27 09:07:03;;;;;;;5.05;4.38;;;26.30;85.80;;;;;;5050711;28;20053;-47
2021/07/27 09:09:30;;;;;;;5.00;4.50;;;26.50;85.20;;;;;;5060088;28;20081;-48
2021/07/27 09:11:57;;;;;;;5.88;4.90;;;26.60;85.40;;;;;;5063456;28;20027;-50
2021/07/27 09:14:23;;;;;;;5.90;4.88;;;26.00;85.00;;;;;;5060811;28;20044;-49
2021/07/27 09:16:50;;;;;;;5.57;5.05;;;25.80;86.60;;;;;;5048927;28;20045;-47
2021/07/27 09:19:16;;;;;;;8.77;5.03;;;25.50;87.40;;;;;;5053119;28;20161;-50
2021/07/27 09:21:43;;;;;;;6.70;4.75;;;25.20;88.20;;;;;;5053540;28;20108;-49
2021/07/27 09:24:21;;;;;;;5.22;4.65;;;25.30;90.00;;;;;;5066729;28;20028;-49
2021/07/27 09:27:05;;;;;;;6.70;4.85;;;26.60;88.50;;;;;;5059335;28;20033;-49
2021/07/27 09:29:32;;;;;;;5.93;4.65;;;27.80;80.90;;;;;;5049610;28;20026;-51
2021/07/27 09:32:01;;;;;;;5.10;4.60;;;27.50;80.20;;;;;;5061834;28;20059;-50
2021/07/27 09:34:28;;;;;;;4.95;4.55;;;27.10;81.10;;;;;;5047596;28;20037;-48
2021/07/27 09:37:04;;;;;;;6.32;4.93;;;27.50;79.70;;;;;;5050531;28;20021;-49
2021/07/27 09:39:30;;;;;;;4.38;3.75;;;28.90;76.00;;;;;;5049568;28;20470;-49
2021/07/27 09:42:02;;;;;;;8.05;3.50;;;30.10;72.80;;;;;;5047099;28;20029;-48
2021/07/27 09:44:29;;;;;;;5.00;3.65;;;31.20;67.60;;;;;;5049337;28;20502;-47
2021/07/27 09:46:57;;;;;;;3.90;3.45;;;31.90;64.90;;;;;;5041420;28;20037;-49
2021/07/27 09:49:23;;;;;;;4.15;3.75;;;30.40;65.50;;;;;;5041032;28;20024;-50
2021/07/27 09:51:50;;;;;;;4.07;3.60;;;29.90;67.10;;;;;;5045373;28;20029;-48
2021/07/27 09:54:20;;;;;;;4.85;4.10;;;29.40;70.30;;;;;;5053485;28;20070;-48
2021/07/27 09:56:46;;;;;;;4.43;4.03;;;28.70;70.90;;;;;;5039097;28;20474;-50
2021/07/27 09:59:16;;;;;;;4.15;3.85;;;29.40;70.00;;;;;;5044144;28;20059;-48
2021/07/27 10:01:54;;;;;;;4.18;3.78;;;29.50;68.70;;;;;;5031036;28;20033;-48
2021/07/27 10:04:23;;;;;;;4.20;3.80;;;29.00;71.50;;;;;;5038136;28;20054;-48
2021/07/27 10:06:50;;;;;;;5.05;4.55;;;28.30;71.60;;;;;;5039401;28;20029;-50
2021/07/27 10:09:26;;;;;;;5.03;4.50;;;27.60;74.10;;;;;;5036581;28;20035;-47
2021/07/27 10:12:03;;;;;;;5.60;4.88;;;27.10;74.20;;;;;;5036486;28;20022;-49
2021/07/27 10:14:37;;;;;;;7.05;5.38;;;26.50;75.90;;;;;;5039988;28;20101;-49
2021/07/27 10:17:03;;;;;;;5.20;4.70;;;25.80;79.30;;;;;;5044517;28;20100;-50
2021/07/27 10:19:37;;;;;;;5.38;4.57;;;25.50;80.80;;;;;;5060540;28;20166;-49
2021/07/27 10:22:04;;;;;;;5.07;4.47;;;25.20;82.30;;;;;;5054342;28;20017;-48
2021/07/27 10:24:41;;;;;;;5.30;4.80;;;25.10;81.40;;;;;;5067596;28;20032;-50
2021/07/27 10:27:09;;;;;;;6.22;4.65;;;25.00;81.90;;;;;;5059980;28;20027;-48
2021/07/27 10:29:34;;;;;;;4.03;3.63;;;26.00;79.20;;;;;;5060746;28;20059;-46
2021/07/27 10:32:11;;;;;;;4.07;3.60;;;27.20;75.50;;;;;;5056613;28;20125;-46
2021/07/27 10:34:40;;;;;;;3.40;3.10;;;28.80;74.40;;;;;;5059566;28;20111;-49
2021/07/27 10:37:08;;;;;;;4.25;3.40;;;30.50;67.60;;;;;;5051525;28;20372;-47
2021/07/27 10:39:44;;;;;;;4.80;3.50;;;31.00;64.10;;;;;;5036154;28;20064;-50
2021/07/27 10:42:10;;;;;;;4.65;3.83;;;32.40;63.20;;;;;;5039171;28;20021;-48
2021/07/27 10:44:38;;;;;;;4.43;3.53;;;32.40;63.20;;;;;;5047113;28;20384;-49
2021/07/27 10:47:04;;;;;;;4.57;3.55;;;31.30;63.20;;;;;;5049708;28;20479;-47
2021/07/27 10:49:30;;;;;;;5.68;3.75;;;30.00;67.00;;;;;;5052064;28;20465;-48
2021/07/27 10:52:01;;;;;;;6.70;3.88;;;29.00;67.70;;;;;;5057683;28;20151;-47
2021/07/27 10:54:31;;;;;;;4.47;3.75;;;28.00;69.80;;;;;;5045738;28;20021;-49
2021/07/27 10:57:04;;;;;;;6.03;4.10;;;28.70;70.10;;;;;;5041036;28;20097;-46
2021/07/27 10:59:32;;;;;;;4.40;3.38;;;30.00;65.90;;;;;;5061561;28;20052;-47
2021/07/27 11:02:10;;;;;;;3.88;3.45;;;30.20;64.70;;;;;;5050450;28;20021;-47
2021/07/27 11:04:37;;;;;;;5.00;3.53;;;29.40;64.40;;;;;;5057958;28;20021;-47
2021/07/27 11:07:09;;;;;;;4.15;3.25;;;29.20;66.40;;;;;;5050016;28;20132;-50
2021/07/27 11:10:05;;;;;;;6.03;3.55;;;28.60;66.20;;;;;;5052852;28;20038;-47
2021/07/27 11:12:35;;;;;;;5.93;3.67;;;27.80;69.60;;;;;;5044745;28;20498;-48
2021/07/27 11:15:08;;;;;;;5.80;3.85;;;28.40;68.70;;;;;;5044380;28;20037;-48
2021/07/27 11:17:35;;;;;;;6.25;3.67;;;28.90;66.40;;;;;;5054025;28;20066;-47
2021/07/27 11:20:02;;;;;;;4.30;3.47;;;29.10;66.30;;;;;;5064946;28;20111;-47
2021/07/27 11:22:28;;;;;;;6.22;3.53;;;29.00;66.80;;;;;;5064465;28;20021;-47
2021/07/27 11:24:55;;;;;;;4.78;3.78;;;30.40;66.40;;;;;;5069309;28;20086;-50
2021/07/27 11:27:28;;;;;;;5.15;3.78;;;30.80;63.40;;;;;;5067395;28;20079;-48
2021/07/27 11:30:01;;;;;;;3.63;3.33;;;30.00;65.30;;;;;;5056783;28;20032;-49
2021/07/27 11:32:44;;;;;;;4.97;3.40;;;30.40;64.20;;;;;;5045095;28;20111;-48
2021/07/27 11:35:24;;;;;;;6.25;3.25;;;31.90;62.70;;;;;;5045756;28;20025;-50
2021/07/27 11:38:01;;;;;;;5.25;2.78;;;33.10;61.60;;;;;;5044932;28;20103;-50
2021/07/27 11:40:28;;;;;;;4.68;2.92;;;33.90;61.30;;;;;;5047706;28;20085;-49
2021/07/27 11:43:05;;;;;;;3.45;2.72;;;34.70;55.80;;;;;;5045042;28;20078;-51
2021/07/27 11:45:49;;;;;;;2.70;2.50;;;35.20;54.00;;;;;;5039524;28;20526;-48
2021/07/27 11:48:15;;;;;;;3.65;2.97;;;34.60;53.80;;;;;;5045351;28;20020;-49
2021/07/27 11:50:42;;;;;;;4.72;2.75;;;34.20;53.30;;;;;;5043412;28;20473;-48
2021/07/27 11:53:23;;;;;;;3.67;2.63;;;33.80;55.50;;;;;;5046599;28;20024;-49
2021/07/27 11:55:48;;;;;;;3.63;2.67;;;34.40;54.20;;;;;;5043827;28;21373;-48
2021/07/27 11:58:27;;;;;;;2.53;2.33;;;33.40;53.10;;;;;;5044184;28;20024;-48
2021/07/27 12:00:57;;;;;;;4.55;2.67;;;32.50;54.90;;;;;;5039354;28;20029;-49
2021/07/27 12:03:23;;;;;;;3.85;2.70;;;31.90;57.00;;;;;;5030732;28;20033;-48
2021/07/27 12:05:49;;;;;;;3.75;2.90;;;31.80;55.90;;;;;;5032563;28;20609;-47
2021/07/27 12:08:14;;;;;;;5.70;3.20;;;31.20;56.00;;;;;;5040541;28;20029;-49
2021/07/27 12:10:40;;;;;;;3.72;3.42;;;30.80;59.20;;;;;;5056438;28;20035;-50
2021/07/27 12:13:05;;;;;;;7.00;3.53;;;30.20;61.30;;;;;;5039059;28;20021;-48
2021/07/27 12:15:31;;;;;;;5.65;3.80;;;29.50;62.10;;;;;;5061485;28;20098;-47
2021/07/27 12:17:56;;;;;;;6.50;4.20;;;29.50;62.30;;;;;;5049874;28;20017;-47
2021/07/27 12:20:22;;;;;;;6.57;4.07;;;28.80;62.20;;;;;;5063564;28;20024;-46
2021/07/27 12:22:47;;;;;;;4.32;3.92;;;28.20;63.50;;;;;;5062115;28;20051;-49
2021/07/27 12:25:13;;;;;;;5.20;4.28;;;27.90;65.10;;;;;;5060774;28;20091;-47
2021/07/27 12:27:39;;;;;;;8.50;4.68;;;27.70;64.60;;;;;;5031977;28;20037;-48
2021/07/27 12:30:06;;;;;;;5.47;3.70;;;27.40;65.90;;;;;;5032729;28;20030;-47
2021/07/27 12:32:32;;;;;;;4.00;3.67;;;28.00;66.70;;;;;;5030162;28;20018;-47
2021/07/27 12:34:57;;;;;;;4.43;4.03;;;28.20;66.50;;;;;;5030505;28;20029;-47
2021/07/27 12:37:23;;;;;;;4.18;3.30;;;28.60;62.60;;;;;;5030209;28;20033;-46
2021/07/27 12:39:48;;;;;;;4.18;3.40;;;28.90;64.60;;;;;;5035243;28;20089;-50
2021/07/27 12:42:14;;;;;;;4.93;4.43;;;29.20;63.70;;;;;;5031481;28;20113;-48
2021/07/27 12:44:40;;;;;;;7.88;4.20;;;29.10;62.30;;;;;;5039319;28;20029;-47
2021/07/27 12:47:05;;;;;;;5.47;4.82;;;29.30;61.30;;;;;;5044199;28;20021;-47
2021/07/27 12:49:31;;;;;;;6.85;4.78;;;28.10;61.80;;;;;;5045181;28;20100;-47
2021/07/27 12:51:56;;;;;;;5.40;4.60;;;28.20;64.50;;;;;;5049994;28;20039;-50
2021/07/27 12:54:22;;;;;;;5.32;4.15;;;28.30;64.60;;;;;;5047190;28;20028;-47
2021/07/27 12:56:47;;;;;;;6.28;4.22;;;28.70;62.30;;;;;;5057412;28;20017;-49
2021/07/27 12:59:13;;;;;;;5.25;4.20;;;29.10;63.00;;;;;;5048539;28;20435;-47
2021/07/27 13:01:39;;;;;;;6.93;4.22;;;28.90;60.80;;;;;;5047681;28;20478;-50
2021/07/27 13:04:04;;;;;;;5.57;4.28;;;29.00;61.20;;;;;;5046695;28;20029;-49
2021/07/27 13:06:33;;;;;;;5.25;3.80;;;28.80;60.50;;;;;;5048318;28;20352;-47
2021/07/27 13:08:59;;;;;;;6.93;4.22;;;28.40;62.00;;;;;;5044336;28;20044;-49